Aérodrome :
LOGIN :

S'inscrire | Disclaimer

   EN    FR    IT 

 










Légende :    VFR   VFR Marginal   IFR   IFR Intensif   IFR Très Intensif
Visi : 
Plafond : 
>= 8 km
>= 3000ft
5 à 8 km
1000 à 3000 ft
1500m à 5 km
500 à 1000 ft
800 à 1500m
200 à 500 ft
< 800m
< 200 ft
Symboles :   Orages  Brouillard  Fortes neiges  Fortes précipitations  Vent > 20 kt
SIGMETs :   Divers  Orages  Givrage  Turbulence  Onde Orograph.  Cendres Volcan.







- Altitude de l'aérodrome : 70 ft
- Code IATA : LEI


LEAM - Almeria

DERNIER METAR :
  • 221830Z 11004KT 080V140 9999 FEW020 BKN080 18/14 Q1001

METARs EXPIRÉS :
  • 221800Z VRB02KT 9999 FEW020 BKN080 17/13 Q1001
  • 221730Z 13003KT 100V180 9999 FEW020 BKN090 18/14 Q1001
  • 221700Z 15004KT 110V190 9999 FEW020 BKN090 18/13 Q1001
  • 221630Z 19006KT 160V220 9999 FEW020 OVC090 18/13 Q1001
  • 221600Z 18006KT 150V220 9999 FEW020 18/13 Q1001

TAF TAF LEAM
Valide du 22 à 15h jusqu'au 23 à 15h UTC


221400Z 2215/2315 22010KT 9999 SCT040 TX19/2215Z TN13/2301Z
BECMG 2216/2219 VRB02KT
BECMG 2301/2304 24014KT
TEMPO 2304/2315 24016G28KT
PROB40
TEMPO 2310/2314 4000 RA BKN014
Pas de NOTAMs connus pour ce terrain.



MET'MAP, la Météo Aéronautique d'un coup d'oeil ! - Copyright ORBIFLY Décembre 2007 - Disclaimer

ORBIFLY MET'MAP TEAM :

Programmation & Développement : Alexandra Zaïnal
Conception & Développement : Baudouin d'Aumeries
Co-Programmation & Développement : Marc-Olivier Méhu
Soutien technique & logistique : Manuel Goepfert

Contact : metmap@orbifly.com




SOURCES & CREDITS :

   NOAA